Time;durP1;ratioP1;P1;durP2;ratioP2;P2;SDS_P1;SDS_P2;PMS_P1;PMS_P2;Temp;Humidity;BMP_temperature;BMP_pressure;BME280_temperature;BME280_humidity;BME280_pressure;Samples;Min_cycle;Max_cycle;Signal;HPM_P1;HPM_P2
2022/07/21 00:02:18;;;;;;;;;;;29.00;29.70;;;27.38;27.64;101112.97;12255858;19;19922;-89
2022/07/21 00:06:20;;;;;;;;;;;28.90;29.70;;;27.22;27.31;101093.41;12250869;19;19921;-88
2022/07/21 00:10:23;;;;;;;;;;;28.90;29.70;;;27.24;27.22;101110.13;12253717;19;20361;-88
2022/07/21 00:14:25;;;;;;;;;;;28.80;29.70;;;26.93;27.79;101078.94;12251819;19;19914;-88
2022/07/21 00:18:28;;;;;;;;;;;28.70;29.90;;;26.88;27.51;101097.41;12248828;19;20280;-89
2022/07/21 00:22:29;;;;;;;;;;;28.60;29.80;;;26.43;27.77;101039.34;12252366;19;19926;-87
2022/07/21 00:26:31;;;;;;;;;;;28.80;30.00;;;26.68;27.88;101090.88;12251496;19;19919;-89
2022/07/21 00:30:34;;;;;;;;;;;28.50;30.00;;;26.56;28.20;101082.47;12249654;19;20275;-87
2022/07/21 00:34:35;;;;;;;;;;;28.30;29.80;;;26.36;28.06;101066.03;12253060;19;20000;-88
2022/07/21 00:38:37;;;;;;;;;;;28.20;29.90;;;26.41;27.83;101073.50;12252819;19;19935;-88
2022/07/21 00:42:39;;;;;;;;;;;28.20;30.00;;;25.82;28.28;100991.13;12252779;19;19915;-88
2022/07/21 00:46:40;;;;;;;;;;;28.00;29.90;;;26.11;28.36;101045.81;12249189;19;19915;-88
2022/07/21 00:50:41;;;;;;;;;;;28.00;30.00;;;26.16;28.11;101054.13;12250766;19;19939;-88
2022/07/21 00:54:43;;;;;;;;;;;27.80;30.00;;;26.05;28.65;101036.66;12248818;19;19906;-89
2022/07/21 00:58:45;;;;;;;;;;;27.80;30.00;;;25.95;28.60;101028.88;12250860;19;19923;-89
2022/07/21 01:02:46;;;;;;;;;;;27.70;30.00;;;26.10;28.30;101057.53;12252216;19;19917;-89
2022/07/21 01:06:48;;;;;;;;;;;27.70;30.10;;;26.11;28.51;101059.19;12247797;19;19915;-89
2022/07/21 01:10:50;;;;;;;;;;;27.70;30.10;;;26.13;28.62;101063.34;12250744;19;19915;-89
2022/07/21 01:14:51;;;;;;;;;;;27.70;30.20;;;26.04;28.89;101065.25;12248650;19;19919;-88
2022/07/21 01:18:53;;;;;;;;;;;27.70;30.20;;;26.01;28.62;101062.94;12251547;19;19907;-88
2022/07/21 01:22:58;;;;;;;;;;;27.60;30.30;;;25.93;28.85;101054.13;12248725;19;20330;-88
2022/07/21 01:26:59;;;;;;;;;;;27.60;30.20;;;26.03;28.58;101068.09;12247696;19;20345;-87
2022/07/21 01:31:00;;;;;;;;;;;27.60;30.30;;;25.97;28.69;101068.81;12247155;19;20277;-87
2022/07/21 01:35:04;;;;;;;;;;;27.50;30.40;;;25.84;28.90;101050.66;12249042;19;19923;-89
2022/07/21 01:43:27;;;;;;;;;;;27.40;30.40;;;25.67;29.19;101049.91;12249143;19;20255;-88
2022/07/21 01:47:29;;;;;;;;;;;27.40;30.40;;;25.53;28.98;101030.09;12246124;19;19918;-88
2022/07/21 01:51:30;;;;;;;;;;;27.30;30.60;;;25.58;28.89;101034.91;12246480;19;19938;-88
2022/07/21 01:55:33;;;;;;;;;;;27.30;30.50;;;25.05;29.22;100974.97;12240026;19;19995;-87
2022/07/21 01:59:34;;;;;;;;;;;27.20;30.40;;;25.43;29.28;101037.47;12245431;19;19934;-88
2022/07/21 02:03:37;;;;;;;;;;;27.10;30.50;;;25.33;28.95;101024.34;12247105;19;19915;-88
2022/07/21 02:07:38;;;;;;;;;;;27.10;30.80;;;24.82;29.50;100948.19;12243698;19;19929;-89
2022/07/21 02:11:40;;;;;;;;;;;27.10;30.50;;;25.36;29.69;101047.22;12245822;19;19931;-88
2022/07/21 02:15:41;;;;;;;;;;;27.10;30.60;;;25.16;29.28;101023.56;12243606;19;20253;-88
2022/07/21 02:19:43;;;;;;;;;;;27.00;30.70;;;25.24;29.70;101044.06;12245941;19;19975;-88
2022/07/21 02:23:45;;;;;;;;;;;26.90;30.50;;;25.13;29.83;101031.88;12244251;19;19932;-88
2022/07/21 02:27:47;;;;;;;;;;;27.00;30.70;;;25.16;29.52;101047.59;12242339;19;19922;-88
2022/07/21 02:31:48;;;;;;;;;;;26.90;30.70;;;24.75;29.86;100981.94;12242454;19;19941;-88
2022/07/21 02:35:49;;;;;;;;;;;26.80;30.70;;;25.12;29.70;101046.28;12244255;19;19911;-88
2022/07/21 02:39:51;;;;;;;;;;;26.80;30.70;;;25.00;29.62;101031.59;12245009;19;19948;-87
2022/07/21 02:43:53;;;;;;;;;;;26.80;30.90;;;24.78;29.93;100995.75;12246036;19;19975;-88
2022/07/21 02:48:02;;;;;;;;;;;26.80;30.90;;;25.18;29.60;101058.16;12242707;19;19915;-88
2022/07/21 02:52:04;;;;;;;;;;;26.70;30.80;;;25.12;29.96;101027.56;12243114;19;20345;-88
2022/07/21 02:56:06;;;;;;;;;;;26.80;30.70;;;24.66;29.84;100965.09;12245145;19;19913;-88
2022/07/21 03:00:09;;;;;;;;;;;26.70;30.70;;;25.04;29.51;101040.13;12244737;19;20320;-89
2022/07/21 03:04:11;;;;;;;;;;;26.70;30.90;;;25.14;29.86;101041.59;12246161;19;20328;-88
2022/07/21 03:08:13;;;;;;;;;;;26.70;30.90;;;25.04;29.99;101035.59;12240180;19;20165;-88
2022/07/21 03:12:15;;;;;;;;;;;26.80;31.00;;;25.04;29.99;101030.25;12243619;19;19915;-87
2022/07/21 03:16:16;;;;;;;;;;;26.70;31.30;;;24.93;29.93;101026.13;12243909;19;19931;-89
2022/07/21 03:20:18;;;;;;;;;;;27.00;31.30;;;24.80;30.18;101025.81;12254760;19;19947;-90
2022/07/21 03:24:20;;;;;;;;;;;26.60;31.20;;;24.69;30.32;101018.16;12255417;19;20284;-87
2022/07/21 03:28:21;;;;;;;;;;;26.50;31.00;;;24.66;30.34;101031.88;12251421;19;20321;-87
2022/07/21 03:32:23;;;;;;;;;;;26.40;31.20;;;24.63;30.44;101024.19;12255145;19;19911;-88
2022/07/21 03:36:24;;;;;;;;;;;26.40;31.20;;;24.54;30.17;101018.00;12253642;19;20404;-87
2022/07/21 03:40:29;;;;;;;;;;;26.30;31.20;;;24.36;30.70;100993.28;12256425;19;19914;-88
2022/07/21 03:44:30;;;;;;;;;;;26.30;31.30;;;24.45;30.57;101013.69;12257084;19;20081;-88
2022/07/21 03:48:32;;;;;;;;;;;26.30;31.30;;;24.43;30.77;101007.66;12256924;19;19949;-87
2022/07/21 03:52:34;;;;;;;;;;;26.30;31.40;;;24.76;30.43;101071.72;12254238;19;19919;-87
2022/07/21 03:56:36;;;;;;;;;;;26.30;31.30;;;24.40;30.45;101016.00;12251694;19;20345;-87
2022/07/21 04:00:40;;;;;;;;;;;26.30;31.40;;;24.50;30.72;101038.88;12255180;19;19943;-87
2022/07/21 04:04:42;;;;;;;;;;;26.60;30.90;;;24.58;30.80;101055.91;12253271;19;20623;-87
2022/07/21 04:08:43;;;;;;;;;;;26.30;31.20;;;24.74;30.76;101077.25;12255373;19;19922;-87
2022/07/21 04:12:45;;;;;;;;;;;26.30;31.50;;;24.76;31.20;101055.69;12253066;19;19931;-87
2022/07/21 04:16:47;;;;;;;;;;;26.40;31.50;;;24.97;31.38;101064.00;12252423;19;19934;-87
2022/07/21 04:20:48;;;;;;;;;;;26.40;30.80;;;25.12;31.27;101058.81;12254885;19;19943;-88
2022/07/21 04:24:50;;;;;;;;;;;26.50;31.60;;;25.19;31.17;101056.28;12251802;19;19946;-88
2022/07/21 04:28:51;;;;;;;;;;;26.60;31.30;;;24.91;30.97;100997.91;12254038;19;20294;-87
2022/07/21 04:32:53;;;;;;;;;;;26.80;31.50;;;25.45;31.00;101062.22;12247864;19;19939;-87
2022/07/21 04:36:55;;;;;;;;;;;27.00;31.60;;;25.60;30.89;101060.47;12248271;19;20362;-88
2022/07/21 04:40:56;;;;;;;;;;;27.10;31.60;;;25.80;30.72;101081.44;12250738;19;19961;-87
2022/07/21 04:44:58;;;;;;;;;;;27.20;31.70;;;25.52;31.28;101038.28;12251535;19;19915;-88
2022/07/21 04:48:59;;;;;;;;;;;27.30;31.80;;;26.02;30.84;101104.75;12251447;19;19919;-87
2022/07/21 04:53:01;;;;;;;;;;;27.40;31.70;;;25.89;30.95;101076.91;12249075;19;20014;-87
2022/07/21 04:57:06;;;;;;;;;;;27.60;31.70;;;26.27;31.20;101120.66;12248655;19;19922;-88
2022/07/21 05:01:07;;;;;;;;;;;27.70;31.70;;;26.31;31.24;101111.25;12249910;19;20272;-89
2022/07/21 05:05:09;;;;;;;;;;;27.70;31.60;;;26.13;31.07;101070.56;12245199;19;19915;-87
2022/07/21 05:09:11;;;;;;;;;;;28.00;31.80;;;26.47;31.23;101113.81;12250456;19;19922;-88
2022/07/21 05:13:12;;;;;;;;;;;27.90;31.70;;;26.61;31.36;101140.88;12247057;19;19927;-88
2022/07/21 05:17:14;;;;;;;;;;;28.00;31.90;;;26.38;31.04;101088.13;12247464;19;19918;-88
2022/07/21 05:21:15;;;;;;;;;;;28.10;31.80;;;26.83;30.92;101158.75;12249737;19;19928;-87
2022/07/21 05:25:17;;;;;;;;;;;28.20;31.80;;;26.88;31.14;101156.38;12248940;19;19926;-87
2022/07/21 05:29:19;;;;;;;;;;;28.30;32.00;;;26.90;31.29;101154.34;12251811;19;19910;-87
2022/07/21 05:33:20;;;;;;;;;;;28.40;31.90;;;27.01;31.19;101171.00;12247223;19;19947;-86
2022/07/21 05:37:22;;;;;;;;;;;28.50;32.20;;;26.99;31.14;101156.94;12247734;19;19978;-86
2022/07/21 05:41:24;;;;;;;;;;;28.50;32.00;;;27.12;31.19;101174.06;12247879;19;19911;-86
2022/07/21 05:45:25;;;;;;;;;;;28.60;32.10;;;26.87;31.55;101117.19;12247410;19;19974;-88
2022/07/21 05:49:26;;;;;;;;;;;28.70;32.00;;;26.86;31.29;101103.97;12246405;19;19930;-86
2022/07/21 05:53:28;;;;;;;;;;;28.70;31.70;;;27.26;31.44;101164.41;12244605;19;20230;-86
2022/07/21 05:57:30;;;;;;;;;;;28.80;32.20;;;27.46;31.43;101199.56;12241241;19;19919;-87
2022/07/21 06:01:31;;;;;;;;;;;28.90;32.10;;;27.36;31.48;101175.72;12248227;19;19921;-86
2022/07/21 06:05:32;;;;;;;;;;;28.90;31.80;;;27.55;31.25;101190.44;12244298;19;20336;-85
2022/07/21 06:09:34;;;;;;;;;;;29.00;31.90;;;27.59;31.48;101180.97;12244629;19;20345;-86
2022/07/21 06:13:36;;;;;;;;;;;29.10;32.00;;;27.77;31.17;101187.81;12244612;19;19978;-87
2022/07/21 06:17:45;;;;;;;;;;;29.20;32.00;;;27.89;31.24;101202.47;12244802;19;20320;-87
2022/07/21 06:21:46;;;;;;;;;;;29.30;31.80;;;27.84;31.03;101169.13;12247199;19;19929;-86
2022/07/21 06:25:49;;;;;;;;;;;29.40;31.90;;;27.90;31.17;101161.19;12246113;19;19921;-86
2022/07/21 06:29:51;;;;;;;;;;;29.50;32.00;;;27.89;31.13;101145.25;12243034;19;19940;-86
2022/07/21 06:33:52;;;;;;;;;;;29.60;32.00;;;28.06;31.06;101180.75;12230247;19;19925;-86
2022/07/21 06:37:54;;;;;;;;;;;29.70;32.10;;;28.13;30.99;101187.06;12237475;19;19922;-88
2022/07/21 06:41:55;;;;;;;;;;;29.70;31.90;;;28.30;31.09;101222.56;12241924;19;19915;-86
2022/07/21 06:46:01;;;;;;;;;;;29.80;32.00;;;27.94;31.23;101170.50;12237498;19;19921;-87
2022/07/21 06:50:03;;;;;;;;;;;29.90;31.80;;;27.79;31.24;101143.69;12242377;19;19927;-86
2022/07/21 06:54:05;;;;;;;;;;;29.90;32.00;;;28.09;31.36;101194.66;12246711;19;20476;-86
2022/07/21 06:58:17;;;;;;;;;;;29.90;32.10;;;28.32;31.21;101223.22;12247907;19;19941;-88
2022/07/21 07:02:19;;;;;;;;;;;29.90;31.90;;;28.03;31.29;101165.88;12251918;19;19907;-88
2022/07/21 07:06:21;;;;;;;;;;;30.20;32.10;;;28.22;31.60;101181.38;12247378;19;19956;-86
2022/07/21 07:10:23;;;;;;;;;;;30.20;32.20;;;28.33;31.34;101198.88;12249085;19;19933;-87
2022/07/21 07:14:24;;;;;;;;;;;30.00;32.00;;;28.49;31.33;101219.31;12247057;19;20260;-88
2022/07/21 07:18:26;;;;;;;;;;;30.10;31.90;;;28.26;31.07;101171.09;12244777;19;19915;-88
2022/07/21 07:22:27;;;;;;;;;;;30.20;32.20;;;28.47;31.18;101197.19;12250388;19;19954;-89
2022/07/21 07:26:28;;;;;;;;;;;30.20;32.10;;;28.59;31.03;101192.94;12246953;19;19918;-88
2022/07/21 07:30:30;;;;;;;;;;;30.30;32.10;;;28.91;31.34;101233.78;12246764;19;19982;-87
2022/07/21 07:34:32;;;;;;;;;;;30.40;32.20;;;29.07;31.33;101248.84;12247656;19;20321;-88
2022/07/21 07:38:33;;;;;;;;;;;30.50;32.20;;;28.96;31.21;101209.00;12246782;19;19929;-86
2022/07/21 07:42:36;;;;;;;;;;;30.60;32.30;;;29.36;30.96;101242.47;12246727;19;20333;-89
2022/07/21 07:46:37;;;;;;;;;;;30.70;32.20;;;29.42;31.07;101247.06;12241971;19;19919;-86
2022/07/21 07:50:39;;;;;;;;;;;30.90;32.30;;;29.64;31.21;101260.47;12244500;19;20273;-88
2022/07/21 07:54:40;;;;;;;;;;;31.00;32.40;;;29.71;31.38;101250.59;12245342;19;19923;-87
2022/07/21 07:58:42;;;;;;;;;;;31.20;32.40;;;30.05;31.10;101281.22;12245967;19;20566;-87
2022/07/21 08:02:43;;;;;;;;;;;31.30;32.40;;;30.05;31.01;101265.88;12252806;19;19994;-87
2022/07/21 08:06:45;;;;;;;;;;;31.50;32.40;;;30.18;31.39;101265.09;12251739;19;20277;-86
2022/07/21 08:10:48;;;;;;;;;;;31.60;32.50;;;30.27;31.17;101255.00;12252160;19;19943;-86
2022/07/21 08:14:49;;;;;;;;;;;31.70;32.40;;;30.46;31.16;101264.19;12252214;19;19922;-88
2022/07/21 08:18:50;;;;;;;;;;;31.90;32.40;;;30.43;30.94;101231.25;12253114;19;20293;-87
2022/07/21 08:22:52;;;;;;;;;;;32.00;32.40;;;30.94;30.99;101304.59;12253373;19;19922;-87
2022/07/21 08:26:54;;;;;;;;;;;32.10;32.30;;;30.92;30.92;101263.50;12252738;19;20325;-87
2022/07/21 08:30:56;;;;;;;;;;;32.30;32.20;;;31.08;30.86;101290.06;12255263;19;19932;-88
2022/07/21 08:34:57;;;;;;;;;;;32.40;32.10;;;30.96;30.86;101268.28;12254757;19;19907;-87
2022/07/21 08:38:58;;;;;;;;;;;32.50;32.10;;;31.07;30.75;101283.84;12254688;19;20278;-88
2022/07/21 08:43:01;;;;;;;;;;;32.50;32.00;;;31.25;31.09;101293.22;12256492;19;19922;-87
2022/07/21 08:47:04;;;;;;;;;;;32.60;32.10;;;31.19;31.12;101265.19;12254662;19;19915;-87
2022/07/21 08:51:05;;;;;;;;;;;32.70;32.20;;;31.36;30.99;101291.75;12254453;19;19926;-87
2022/07/21 08:55:07;;;;;;;;;;;32.80;32.10;;;31.40;30.85;101301.94;12254537;19;19915;-88
2022/07/21 08:59:08;;;;;;;;;;;32.90;32.10;;;31.44;30.67;101299.66;12256325;19;19940;-89
2022/07/21 09:03:16;;;;;;;;;;;32.90;32.00;;;31.48;30.80;101300.91;12256979;19;19914;-87
2022/07/21 09:07:19;;;;;;;;;;;32.90;32.10;;;31.44;30.81;101283.47;12253980;19;19918;-87
2022/07/21 09:11:25;;;;;;;;;;;32.90;32.00;;;31.48;31.03;101287.41;12253002;19;20431;-88
2022/07/21 09:15:29;;;;;;;;;;;32.90;31.90;;;31.42;30.67;101285.53;12247869;19;19923;-88
2022/07/21 09:19:35;;;;;;;;;;;32.90;31.90;;;31.26;31.01;101275.97;12249567;19;19915;-88
2022/07/21 09:23:37;;;;;;;;;;;32.90;31.90;;;31.33;30.76;101289.47;12247274;19;19926;-88
2022/07/21 09:27:38;;;;;;;;;;;32.90;32.00;;;31.14;30.98;101251.47;12245964;19;20278;-88
2022/07/21 09:31:40;;;;;;;;;;;32.90;31.90;;;31.52;30.53;101291.34;12246712;19;19957;-87
2022/07/21 09:35:55;;;;;;;;;;;32.90;32.00;;;31.25;30.96;101215.75;12243705;19;19956;-87
2022/07/21 09:40:06;;;;;;;;;;;33.00;32.10;;;31.68;30.63;101263.06;12249350;19;20329;-89
2022/07/21 09:44:07;;;;;;;;;;;33.10;32.10;;;31.95;30.69;101283.59;12248802;19;19927;-87
2022/07/21 09:48:28;;;;;;;;;;;33.30;32.10;;;32.10;30.45;101296.00;12244193;19;19919;-84
2022/07/21 09:52:37;;;;;;;;;;;33.30;32.00;;;32.23;30.41;101284.34;12244041;19;19936;-87
2022/07/21 09:56:44;;;;;;;;;;;33.50;32.00;;;32.47;30.72;101289.03;12244488;19;19915;-87
2022/07/21 10:00:46;;;;;;;;;;;33.70;31.90;;;32.58;30.29;101298.34;12247403;19;20345;-86
2022/07/21 10:04:59;;;;;;;;;;;33.80;31.90;;;32.75;30.50;101312.16;12248181;19;19911;-87
2022/07/21 10:09:03;;;;;;;;;;;33.90;31.90;;;32.72;30.14;101299.09;12247238;19;19932;-87
2022/07/21 10:13:05;;;;;;;;;;;34.00;31.80;;;32.87;30.27;101310.44;12244731;19;20253;-87
2022/07/21 10:17:06;;;;;;;;;;;34.20;31.80;;;32.86;30.13;101302.53;12247165;19;19911;-90
2022/07/21 10:21:23;;;;;;;;;;;34.30;31.80;;;32.92;30.07;101299.78;12248038;19;19914;-86
2022/07/21 10:25:26;;;;;;;;;;;34.30;31.80;;;32.99;30.12;101297.84;12243774;19;19925;-87
2022/07/21 10:30:00;;;;;;;;;;;34.40;31.70;;;33.24;30.38;101318.72;12254234;19;19915;-86
2022/07/21 10:34:02;;;;;;;;;;;34.50;31.80;;;33.23;30.33;101306.25;12257229;19;19924;-86
2022/07/21 10:38:04;;;;;;;;;;;34.60;31.70;;;33.27;30.06;101302.88;12253936;19;20333;-87
2022/07/21 10:42:16;;;;;;;;;;;34.60;31.60;;;33.30;30.02;101308.88;12257870;19;19990;-88
2022/07/21 10:46:32;;;;;;;;;;;34.70;31.50;;;33.20;29.99;101277.72;12256173;19;19919;-88
2022/07/21 10:50:38;;;;;;;;;;;34.70;31.60;;;33.50;29.83;101331.22;12256868;19;19934;-87
2022/07/21 10:54:39;;;;;;;;;;;34.80;31.60;;;33.45;29.76;101315.63;12258544;19;19919;-86
2022/07/21 10:58:41;;;;;;;;;;;34.80;31.50;;;33.42;29.94;101318.78;12250687;19;19919;-87
2022/07/21 11:02:43;;;;;;;;;;;34.90;31.60;;;33.40;29.77;101309.22;12256734;19;19915;-87
2022/07/21 11:06:45;;;;;;;;;;;34.90;31.50;;;33.52;29.89;101320.16;12253095;19;19911;-87
2022/07/21 11:10:49;;;;;;;;;;;34.90;31.50;;;33.58;29.81;101343.69;12256363;19;19923;-87
2022/07/21 11:14:51;;;;;;;;;;;34.90;31.50;;;33.64;29.81;101329.25;12256586;19;19930;-89
2022/07/21 11:18:53;;;;;;;;;;;34.90;31.50;;;33.69;29.71;101337.53;12256162;19;19922;-87
2022/07/21 11:22:54;;;;;;;;;;;35.00;31.40;;;33.64;30.06;101331.94;12257133;19;19915;-89
2022/07/21 11:26:59;;;;;;;;;;;35.10;31.40;;;33.52;29.48;101336.44;12253603;19;19928;-86
2022/07/21 11:31:08;;;;;;;;;;;35.00;31.20;;;33.40;29.99;101323.56;12255856;19;19983;-88
2022/07/21 11:35:12;;;;;;;;;;;35.00;31.30;;;33.45;29.53;101334.56;12254431;19;19907;-86
2022/07/21 11:39:15;;;;;;;;;;;34.90;31.30;;;33.38;30.04;101328.41;12254086;19;19918;-87
2022/07/21 11:43:19;;;;;;;;;;;34.90;31.30;;;33.36;29.74;101335.91;12255234;19;19907;-86
2022/07/21 11:47:25;;;;;;;;;;;34.80;31.30;;;33.26;29.58;101333.69;12251670;19;19978;-86
2022/07/21 11:51:26;;;;;;;;;;;34.80;31.30;;;33.13;29.87;101322.97;12253718;19;19919;-86
2022/07/21 11:55:29;;;;;;;;;;;34.70;31.30;;;33.02;29.86;101293.91;12253760;19;19923;-86
2022/07/21 11:59:31;;;;;;;;;;;34.60;31.20;;;33.19;29.92;101311.28;12252657;19;19935;-87
2022/07/21 12:03:32;;;;;;;;;;;34.60;31.40;;;33.24;29.65;101294.34;12256856;19;20021;-86
2022/07/21 12:07:45;;;;;;;;;;;34.70;31.40;;;33.20;29.66;101301.28;12249762;19;19926;-86
2022/07/21 12:11:47;;;;;;;;;;;34.80;31.40;;;33.34;29.63;101321.75;12240641;19;19926;-86
2022/07/21 12:15:48;;;;;;;;;;;34.70;31.30;;;33.27;29.80;101334.56;12244941;19;19925;-85
2022/07/21 12:19:50;;;;;;;;;;;34.70;31.30;;;33.02;29.92;101292.03;12247849;19;19919;-85
2022/07/21 12:23:52;;;;;;;;;;;34.60;31.30;;;33.17;29.65;101326.91;12249781;19;20349;-86
2022/07/21 12:27:56;;;;;;;;;;;34.70;31.40;;;33.08;29.74;101313.84;12245709;19;19990;-86
2022/07/21 12:31:57;;;;;;;;;;;34.60;31.40;;;33.14;29.49;101321.94;12248451;19;19915;-86
2022/07/21 12:36:02;;;;;;;;;;;34.50;31.40;;;33.09;29.81;101323.66;12246959;19;19919;-88
2022/07/21 12:40:04;;;;;;;;;;;34.50;31.40;;;33.03;29.87;101328.88;12246519;19;19922;-85
2022/07/21 12:44:05;;;;;;;;;;;34.50;31.40;;;32.74;29.45;101294.28;12246243;19;20340;-86
2022/07/21 12:48:08;;;;;;;;;;;34.50;31.50;;;32.98;29.48;101342.22;12244227;19;19918;-85
2022/07/21 12:52:11;;;;;;;;;;;34.40;31.50;;;32.54;29.61;101289.84;12244768;19;19963;-85
2022/07/21 12:56:22;;;;;;;;;;;34.40;31.60;;;32.68;29.88;101325.75;12247050;19;20539;-85
2022/07/21 13:00:23;;;;;;;;;;;34.30;31.60;;;32.51;29.94;101317.28;12246080;19;19922;-86
2022/07/21 13:04:25;;;;;;;;;;;34.20;31.70;;;32.66;29.94;101356.75;12242064;19;19926;-86
2022/07/21 13:08:27;;;;;;;;;;;34.20;31.90;;;32.48;30.07;101354.75;12248630;19;20325;-86
2022/07/21 13:12:28;;;;;;;;;;;34.00;31.70;;;32.30;29.93;101358.13;12247803;19;19942;-86
2022/07/21 13:16:30;;;;;;;;;;;34.00;31.80;;;32.14;29.94;101354.03;12249081;19;19990;-85
2022/07/21 13:20:32;;;;;;;;;;;33.70;32.00;;;31.94;30.55;101345.94;12248850;19;20279;-87
2022/07/21 13:24:34;;;;;;;;;;;33.70;32.10;;;31.77;30.13;101339.31;12249589;19;19978;-86
2022/07/21 13:28:35;;;;;;;;;;;33.50;32.10;;;31.60;30.74;101361.34;12248205;19;19933;-86
2022/07/21 13:32:37;;;;;;;;;;;33.30;32.20;;;31.46;30.84;101346.16;12249803;19;19924;-85
2022/07/21 13:36:39;;;;;;;;;;;33.20;32.30;;;31.38;30.94;101344.53;12247498;19;19923;-86
2022/07/21 13:40:41;;;;;;;;;;;33.00;32.30;;;31.31;30.68;101327.47;12250285;19;20400;-86
2022/07/21 13:44:42;;;;;;;;;;;32.90;32.50;;;31.25;30.70;101349.88;12247139;19;19928;-87
2022/07/21 13:48:47;;;;;;;;;;;32.90;32.30;;;31.20;31.15;101328.91;12248902;19;20249;-87
2022/07/21 13:52:48;;;;;;;;;;;32.90;32.70;;;31.09;31.14;101326.81;12247125;19;19903;-86
2022/07/21 13:56:50;;;;;;;;;;;32.70;32.90;;;30.99;31.09;101316.41;12243077;19;19922;-87
2022/07/21 14:00:53;;;;;;;;;;;32.50;33.00;;;30.98;31.12;101349.00;12246611;19;20283;-87
2022/07/21 14:04:54;;;;;;;;;;;32.70;33.20;;;30.76;31.19;101337.50;12246181;19;19915;-87
2022/07/21 14:08:56;;;;;;;;;;;32.40;33.30;;;30.50;31.27;101320.22;12247206;19;19915;-87
2022/07/21 14:12:57;;;;;;;;;;;32.20;33.40;;;30.44;31.75;101331.81;12244786;19;20264;-88
2022/07/21 14:17:03;;;;;;;;;;;32.10;33.50;;;30.12;31.79;101342.19;12241725;19;20383;-88
2022/07/21 14:21:04;;;;;;;;;;;31.90;33.40;;;29.94;31.92;101342.69;12246689;19;19911;-88
2022/07/21 14:25:19;;;;;;;;;;;31.70;33.30;;;29.73;32.12;101359.75;12246794;19;20325;-88
2022/07/21 14:29:20;;;;;;;;;;;31.40;33.70;;;29.64;32.41;101368.16;12246089;19;19923;-88
2022/07/21 14:33:22;;;;;;;;;;;31.30;34.20;;;29.57;32.40;101357.31;12244780;19;20237;-88
2022/07/21 14:37:23;;;;;;;;;;;31.20;34.50;;;29.53;32.24;101366.81;12242765;19;19978;-88
2022/07/21 14:41:25;;;;;;;;;;;31.10;35.00;;;29.44;32.58;101344.56;12246476;19;20317;-88
2022/07/21 14:45:27;;;;;;;;;;;31.30;34.60;;;29.11;32.98;101307.44;12244857;19;20352;-88
2022/07/21 14:49:28;;;;;;;;;;;30.90;34.30;;;28.73;33.17;101274.53;12246251;19;19974;-88
2022/07/21 14:53:30;;;;;;;;;;;30.80;34.50;;;28.50;33.07;101296.22;12242575;19;19923;-89
2022/07/21 14:57:32;;;;;;;;;;;30.60;34.50;;;28.44;33.22;101326.53;12239678;19;20807;-89
2022/07/21 15:01:33;;;;;;;;;;;30.40;34.60;;;28.14;33.56;101299.69;12234728;19;20300;-88
2022/07/21 15:05:35;;;;;;;;;;;30.20;35.10;;;28.45;33.67;101357.75;12240651;19;19918;-88
2022/07/21 15:09:36;;;;;;;;;;;30.10;35.30;;;28.28;33.78;101332.09;12243443;19;19943;-88
2022/07/21 15:13:38;;;;;;;;;;;30.00;35.20;;;28.48;34.20;101360.06;12241580;19;19918;-87
2022/07/21 15:17:39;;;;;;;;;;;30.00;34.50;;;28.19;34.08;101308.00;12251564;19;20701;-88
2022/07/21 15:21:42;;;;;;;;;;;30.00;35.20;;;28.00;34.27;101252.16;12256021;19;19907;-88
2022/07/21 15:25:43;;;;;;;;;;;29.90;35.40;;;28.45;33.95;101307.53;12255147;19;19922;-89
2022/07/21 15:29:44;;;;;;;;;;;30.00;35.00;;;28.48;34.12;101297.44;12256169;19;19949;-89
2022/07/21 15:33:47;;;;;;;;;;;30.00;35.10;;;28.66;34.42;101296.00;12252552;19;19927;-87
2022/07/21 15:37:48;;;;;;;;;;;30.00;35.40;;;28.63;34.78;101276.72;12253605;19;19971;-88
2022/07/21 15:41:50;;;;;;;;;;;30.10;34.50;;;28.19;34.35;101227.44;12255117;19;19918;-87
2022/07/21 15:45:55;;;;;;;;;;;30.10;35.40;;;28.00;34.45;101220.81;12254960;19;19918;-87
2022/07/21 15:49:56;;;;;;;;;;;30.10;35.40;;;28.33;34.30;101270.56;12253999;19;19919;-88
2022/07/21 15:53:58;;;;;;;;;;;30.10;35.40;;;28.29;34.80;101255.84;12250974;19;19939;-87
2022/07/21 15:58:00;;;;;;;;;;;30.10;34.80;;;28.57;34.59;101302.50;12250751;19;19915;-87
2022/07/21 16:02:13;;;;;;;;;;;30.10;35.20;;;28.41;35.53;101273.16;12253077;19;19919;-88
2022/07/21 16:06:15;;;;;;;;;;;30.10;34.80;;;28.32;35.19;101267.03;12251878;19;19941;-87
2022/07/21 16:10:17;;;;;;;;;;;30.10;35.40;;;28.55;35.17;101303.72;12256588;19;19923;-87
2022/07/21 16:14:18;;;;;;;;;;;30.00;35.20;;;28.51;35.45;101291.69;12254218;19;19925;-87
2022/07/21 16:18:20;;;;;;;;;;;30.10;35.10;;;28.57;35.25;101289.06;12253305;19;19931;-87
2022/07/21 16:22:21;;;;;;;;;;;30.00;35.30;;;28.73;35.34;101300.59;12257318;19;19907;-88
2022/07/21 16:26:25;;;;;;;;;;;30.10;35.30;;;28.76;35.24;101294.84;12254736;19;20321;-90
2022/07/21 16:30:26;;;;;;;;;;;30.20;35.60;;;28.87;35.16;101305.13;12256334;19;19915;-87
2022/07/21 16:34:33;;;;;;;;;;;30.20;35.30;;;28.83;35.41;101291.19;12256314;19;20246;-87
2022/07/21 16:38:34;;;;;;;;;;;30.20;35.50;;;28.88;35.44;101287.94;12257616;19;19934;-87
2022/07/21 16:42:36;;;;;;;;;;;30.20;35.90;;;28.71;35.35;101251.59;12256565;19;20329;-88
2022/07/21 16:46:38;;;;;;;;;;;30.30;35.70;;;29.05;35.39;101294.75;12253462;19;20245;-87
2022/07/21 16:50:39;;;;;;;;;;;30.50;36.00;;;29.01;35.52;101280.00;12254820;19;19923;-87
2022/07/21 16:54:40;;;;;;;;;;;30.40;35.50;;;29.13;35.62;101285.72;12256200;19;19991;-88
2022/07/21 16:58:42;;;;;;;;;;;30.50;36.00;;;29.14;35.51;101281.16;12256043;19;19950;-88
2022/07/21 17:02:44;;;;;;;;;;;30.80;36.00;;;28.96;35.48;101241.28;12254017;19;19914;-88
2022/07/21 17:06:46;;;;;;;;;;;30.60;35.30;;;29.18;35.23;101272.53;12249746;19;19914;-88
2022/07/21 17:10:47;;;;;;;;;;;30.60;35.80;;;29.19;35.27;101266.13;12254406;19;19919;-87
2022/07/21 17:14:48;;;;;;;;;;;30.60;35.90;;;29.27;35.52;101265.16;12253051;19;19939;-87
2022/07/21 17:18:50;;;;;;;;;;;30.60;35.60;;;29.21;35.39;101245.22;12252772;19;20234;-87
2022/07/21 17:22:51;;;;;;;;;;;30.60;36.20;;;29.26;35.68;101250.88;12251873;19;19914;-87
2022/07/21 17:26:52;;;;;;;;;;;30.60;35.70;;;29.29;35.46;101252.34;12253547;19;19936;-87
2022/07/21 17:30:54;;;;;;;;;;;30.90;35.80;;;29.27;35.53;101246.31;12255525;19;19918;-88
2022/07/21 17:34:56;;;;;;;;;;;30.70;35.80;;;28.84;35.36;101173.72;12252947;19;19922;-87
2022/07/21 17:38:57;;;;;;;;;;;30.70;36.10;;;29.11;35.34;101207.06;12248918;19;20254;-87
2022/07/21 17:42:59;;;;;;;;;;;30.70;36.00;;;29.16;35.61;101214.56;12248798;19;19911;-86
2022/07/21 17:47:00;;;;;;;;;;;30.70;35.60;;;29.26;35.54;101236.59;12248670;19;19956;-86
2022/07/21 17:51:02;;;;;;;;;;;30.70;36.00;;;29.30;35.82;101237.84;12248398;19;20246;-86
2022/07/21 17:55:05;;;;;;;;;;;30.70;36.10;;;29.18;35.51;101217.91;12247077;19;19915;-86
2022/07/21 17:59:06;;;;;;;;;;;30.80;36.10;;;29.29;35.92;101236.19;12252144;19;19915;-86
2022/07/21 18:03:07;;;;;;;;;;;30.80;36.10;;;29.24;35.45;101223.31;12254935;19;20329;-86
2022/07/21 18:07:10;;;;;;;;;;;30.70;36.00;;;29.26;35.84;101225.81;12251011;19;19907;-87
2022/07/21 18:11:12;;;;;;;;;;;30.70;36.00;;;29.31;35.60;101224.22;12254198;19;19936;-86
2022/07/21 18:15:14;;;;;;;;;;;30.70;36.20;;;29.09;36.14;101182.25;12255868;19;19919;-87